createdAt,value
2018-04-18T00:00:22.379Z,11.80
2018-04-18T00:01:23.089Z,11.75
2018-04-18T00:02:23.723Z,11.70
2018-04-18T00:03:24.396Z,11.72
2018-04-18T00:04:25.069Z,11.66
2018-04-18T00:05:25.739Z,11.66
2018-04-18T00:06:26.407Z,11.69
2018-04-18T00:07:27.078Z,11.68
2018-04-18T00:08:27.748Z,11.68
2018-04-18T00:09:28.418Z,11.69
2018-04-18T00:10:29.088Z,11.70
2018-04-18T00:11:29.760Z,11.66
2018-04-18T00:12:30.432Z,11.66
2018-04-18T00:13:31.105Z,11.60
2018-04-18T00:14:31.781Z,11.63
2018-04-18T00:15:32.451Z,11.66
2018-04-18T00:16:33.121Z,11.63
2018-04-18T00:17:33.791Z,11.59
2018-04-18T00:18:34.456Z,11.54
2018-04-18T00:19:35.126Z,11.57
2018-04-18T00:20:35.796Z,11.59
2018-04-18T00:21:36.464Z,11.59
2018-04-18T00:22:37.143Z,11.48
2018-04-18T00:23:37.814Z,11.48
2018-04-18T00:24:38.489Z,11.51
2018-04-18T00:25:39.161Z,11.47
2018-04-18T00:26:39.835Z,11.33
2018-04-18T00:27:40.505Z,11.36
2018-04-18T00:28:41.186Z,11.45
2018-04-18T00:29:41.858Z,11.33
2018-04-18T00:30:42.531Z,11.30
2018-04-18T00:31:43.201Z,11.30
2018-04-18T00:32:43.872Z,11.27
2018-04-18T00:33:44.548Z,11.25
2018-04-18T00:34:45.219Z,11.29
2018-04-18T00:35:45.886Z,11.26
2018-04-18T00:36:46.558Z,11.22
2018-04-18T00:37:47.226Z,11.15
2018-04-18T00:38:47.894Z,11.29
2018-04-18T00:39:48.562Z,11.11
2018-04-18T00:40:49.233Z,11.15
2018-04-18T00:41:49.907Z,11.14
2018-04-18T00:42:50.574Z,11.23
2018-04-18T00:43:51.248Z,11.14
2018-04-18T00:44:51.915Z,11.17
2018-04-18T00:45:52.583Z,11.19
2018-04-18T00:46:53.255Z,11.11
2018-04-18T00:47:53.925Z,11.17
2018-04-18T00:48:54.603Z,11.18
2018-04-18T00:49:55.275Z,11.11
2018-04-18T00:50:55.949Z,11.08
2018-04-18T00:51:56.618Z,11.07
2018-04-18T00:52:57.291Z,10.94
2018-04-18T00:53:57.958Z,11.08
2018-04-18T00:54:58.631Z,11.10
2018-04-18T00:55:59.300Z,11.07
2018-04-18T00:56:59.975Z,10.97
2018-04-18T00:58:00.647Z,11.00
2018-04-18T00:59:01.344Z,10.96
2018-04-18T01:00:02.014Z,10.90
2018-04-18T01:01:02.686Z,10.89
2018-04-18T01:02:03.352Z,10.90
2018-04-18T01:03:04.022Z,10.92
2018-04-18T01:04:04.696Z,10.86
2018-04-18T01:05:05.363Z,10.93
2018-04-18T01:06:06.030Z,10.82
2018-04-18T01:07:06.699Z,10.87
2018-04-18T01:08:07.369Z,10.84
2018-04-18T01:09:08.042Z,10.89
2018-04-18T01:10:08.717Z,10.90
2018-04-18T01:11:09.389Z,10.82
2018-04-18T01:12:10.058Z,10.78
2018-04-18T01:13:10.730Z,10.82
2018-04-18T01:14:11.401Z,10.78
2018-04-18T01:15:12.075Z,10.76
2018-04-18T01:16:12.745Z,10.81
2018-04-18T01:17:13.418Z,10.78
2018-04-18T01:18:14.091Z,10.74
2018-04-18T01:19:14.761Z,10.79
2018-04-18T01:20:15.436Z,10.78
2018-04-18T01:21:16.104Z,10.75
2018-04-18T01:22:16.790Z,10.74
2018-04-18T01:23:17.462Z,10.63
2018-04-18T01:24:18.134Z,10.79
2018-04-18T01:25:18.802Z,10.72
2018-04-18T01:26:19.471Z,10.78
2018-04-18T01:27:20.142Z,10.71
2018-04-18T01:28:20.811Z,10.67
2018-04-18T01:29:21.479Z,10.64
2018-04-18T01:30:22.147Z,10.53
2018-04-18T01:31:22.817Z,10.60
2018-04-18T01:32:23.486Z,10.61
2018-04-18T01:33:24.158Z,10.56
2018-04-18T01:34:24.839Z,10.63
2018-04-18T01:35:25.508Z,10.53
2018-04-18T01:36:26.174Z,10.59
2018-04-18T01:37:26.845Z,10.53
2018-04-18T01:38:27.517Z,10.46
2018-04-18T01:39:28.188Z,10.44
2018-04-18T01:40:28.863Z,10.37
2018-04-18T01:41:29.534Z,10.42
2018-04-18T01:42:30.200Z,10.38
2018-04-18T01:43:30.870Z,10.37
2018-04-18T01:44:31.541Z,10.35
2018-04-18T01:45:32.218Z,10.40
2018-04-18T01:46:32.888Z,10.35
2018-04-18T01:47:33.556Z,10.34
2018-04-18T01:48:34.226Z,10.33
2018-04-18T01:49:34.900Z,10.23
2018-04-18T01:50:35.575Z,10.20
2018-04-18T01:51:36.246Z,10.19
2018-04-18T01:52:36.913Z,10.19
2018-04-18T01:53:37.593Z,10.17
2018-04-18T01:54:38.258Z,10.12
2018-04-18T01:55:38.932Z,10.13
2018-04-18T01:56:39.603Z,10.13
2018-04-18T01:57:40.277Z,10.20
2018-04-18T01:58:40.947Z,10.12
2018-04-18T01:59:41.617Z,10.22
2018-04-18T02:00:42.288Z,10.13
2018-04-18T02:01:42.957Z,10.17
2018-04-18T02:02:43.623Z,10.04
2018-04-18T02:03:44.295Z,10.09
2018-04-18T02:04:44.967Z,9.98
2018-04-18T02:05:45.641Z,10.02
2018-04-18T02:06:46.312Z,9.94
2018-04-18T02:07:46.976Z,9.99
2018-04-18T02:08:47.644Z,10.07
2018-04-18T02:09:48.315Z,9.98
2018-04-18T02:10:48.982Z,9.99
2018-04-18T02:11:49.655Z,9.95
2018-04-18T02:12:50.322Z,9.95
2018-04-18T02:13:50.993Z,9.95
2018-04-18T02:14:51.667Z,9.98
2018-04-18T02:15:52.332Z,9.92
2018-04-18T02:16:53.001Z,9.98
2018-04-18T02:17:53.674Z,9.94
2018-04-18T02:18:54.342Z,9.92
2018-04-18T02:19:55.013Z,9.94
2018-04-18T02:20:55.680Z,9.84
2018-04-18T02:21:56.349Z,9.87
2018-04-18T02:22:57.020Z,9.86
2018-04-18T02:23:57.688Z,9.84
2018-04-18T02:24:58.356Z,9.86
2018-04-18T02:25:59.027Z,9.79
2018-04-18T02:26:59.696Z,9.73
2018-04-18T02:28:00.370Z,9.74
2018-04-18T02:29:01.037Z,9.77
2018-04-18T02:30:01.779Z,9.73
2018-04-18T02:31:02.599Z,9.74
2018-04-18T02:32:03.265Z,9.77
2018-04-18T02:33:03.932Z,9.69
2018-04-18T02:34:04.602Z,9.74
2018-04-18T02:35:05.275Z,9.73
2018-04-18T02:36:05.943Z,9.66
2018-04-18T02:37:06.612Z,9.72
2018-04-18T02:38:07.289Z,9.65
2018-04-18T02:39:07.960Z,9.68
2018-04-18T02:40:08.633Z,9.59
2018-04-18T02:41:09.305Z,9.65
2018-04-18T02:42:09.977Z,9.62
2018-04-18T02:43:10.648Z,9.65
2018-04-18T02:44:11.313Z,9.61
2018-04-18T02:45:11.985Z,9.59
2018-04-18T02:46:12.652Z,9.59
2018-04-18T02:47:13.326Z,9.56
2018-04-18T02:48:13.998Z,9.55
2018-04-18T02:49:14.676Z,9.59
2018-04-18T02:50:15.345Z,9.59
2018-04-18T02:51:16.010Z,9.58
2018-04-18T02:52:16.678Z,9.55
2018-04-18T02:53:17.349Z,9.55
2018-04-18T02:54:18.017Z,9.40
2018-04-18T02:55:18.682Z,9.41
2018-04-18T02:56:19.358Z,9.48
2018-04-18T02:57:20.019Z,9.40
2018-04-18T02:58:20.688Z,9.47
2018-04-18T02:59:21.364Z,9.43
2018-04-18T03:00:22.032Z,9.54
2018-04-18T03:01:22.697Z,9.46
2018-04-18T03:02:23.370Z,9.39
2018-04-18T03:03:24.044Z,9.46
2018-04-18T03:04:24.712Z,9.37
2018-04-18T03:06:26.052Z,9.41
2018-04-18T03:07:26.725Z,9.36
2018-04-18T03:08:27.395Z,9.36
2018-04-18T03:09:28.074Z,9.36
2018-04-18T03:10:28.742Z,9.39
2018-04-18T03:11:29.418Z,9.29
2018-04-18T03:12:30.094Z,9.39
2018-04-18T03:13:30.760Z,9.28
2018-04-18T03:14:31.430Z,9.40
2018-04-18T03:15:32.097Z,9.37
2018-04-18T03:16:32.765Z,9.39
2018-04-18T03:17:33.484Z,9.36
2018-04-18T03:18:34.105Z,9.36
2018-04-18T03:19:34.771Z,9.36
2018-04-18T03:20:35.440Z,9.26
2018-04-18T03:21:36.113Z,9.34
2018-04-18T03:22:36.788Z,9.28
2018-04-18T03:23:37.459Z,9.26
2018-04-18T03:24:38.126Z,9.25
2018-04-18T03:25:38.794Z,9.34
2018-04-18T03:26:39.525Z,9.26
2018-04-18T03:27:40.129Z,9.28
2018-04-18T03:28:40.793Z,9.22
2018-04-18T03:29:41.460Z,9.21
2018-04-18T03:30:42.128Z,9.19
2018-04-18T03:31:42.801Z,9.25
2018-04-18T03:32:43.484Z,9.10
2018-04-18T03:33:44.147Z,9.11
2018-04-18T03:34:44.815Z,9.14
2018-04-18T03:35:45.483Z,9.10
2018-04-18T03:36:46.156Z,9.04
2018-04-18T03:37:46.823Z,9.03
2018-04-18T03:38:47.490Z,9.04
2018-04-18T03:39:48.159Z,9.03
2018-04-18T03:40:48.874Z,9.04
2018-04-18T03:41:49.498Z,9.04
2018-04-18T03:42:50.165Z,9.06
2018-04-18T03:43:50.833Z,9.00
2018-04-18T03:44:51.501Z,9.11
2018-04-18T03:45:52.168Z,8.94
2018-04-18T03:46:52.834Z,8.94
2018-04-18T03:47:53.501Z,9.04
2018-04-18T03:48:54.167Z,9.02
2018-04-18T03:49:54.836Z,8.99
2018-04-18T03:50:55.505Z,9.00
2018-04-18T03:51:56.173Z,8.91
2018-04-18T03:52:56.842Z,8.91
2018-04-18T03:53:57.517Z,8.92
2018-04-18T03:54:58.179Z,8.91
2018-04-18T03:55:58.846Z,8.94
2018-04-18T03:56:59.514Z,8.92
2018-04-18T03:58:00.186Z,8.92
2018-04-18T03:59:00.855Z,8.89
2018-04-18T04:00:01.529Z,8.91
2018-04-18T04:01:02.198Z,8.85
2018-04-18T04:02:02.865Z,8.91
2018-04-18T04:03:03.528Z,8.88
2018-04-18T04:04:04.196Z,8.92
2018-04-18T04:05:04.868Z,8.91
2018-04-18T04:06:05.534Z,8.94
2018-04-18T04:07:06.210Z,8.92
2018-04-18T04:08:06.886Z,8.88
2018-04-18T04:09:07.552Z,8.94
2018-04-18T04:10:08.220Z,8.91
2018-04-18T04:11:08.889Z,8.89
2018-04-18T04:12:09.559Z,8.89
2018-04-18T04:13:10.230Z,8.87
2018-04-18T04:14:10.901Z,8.88
2018-04-18T04:15:11.565Z,8.89
2018-04-18T04:16:12.236Z,8.92
2018-04-18T04:17:12.907Z,8.88
2018-04-18T04:18:13.579Z,8.82
2018-04-18T04:19:14.252Z,8.79
2018-04-18T04:20:14.931Z,8.71
2018-04-18T04:21:15.600Z,8.70
2018-04-18T04:22:16.270Z,8.71
2018-04-18T04:23:16.942Z,8.73
2018-04-18T04:24:17.614Z,8.69
2018-04-18T04:25:18.284Z,8.74
2018-04-18T04:26:18.955Z,8.69
2018-04-18T04:27:19.623Z,8.71
2018-04-18T04:28:20.300Z,8.76
2018-04-18T04:29:20.973Z,8.76
2018-04-18T04:30:21.642Z,8.73
2018-04-18T04:31:22.315Z,8.82
2018-04-18T04:32:22.988Z,8.82
2018-04-18T04:33:23.659Z,8.91
2018-04-18T04:34:24.331Z,8.84
2018-04-18T04:35:25.004Z,8.84
2018-04-18T04:36:25.676Z,8.78
2018-04-18T04:37:26.347Z,8.87
2018-04-18T04:38:27.020Z,8.84
2018-04-18T04:39:27.693Z,8.78
2018-04-18T04:40:28.363Z,8.82
2018-04-18T04:41:29.030Z,8.79
2018-04-18T04:42:29.701Z,8.87
2018-04-18T04:43:30.381Z,8.84
2018-04-18T04:44:31.053Z,8.82
2018-04-18T04:45:31.723Z,8.87
2018-04-18T04:46:32.392Z,8.71
2018-04-18T04:47:33.062Z,8.71
2018-04-18T04:48:33.734Z,8.63
2018-04-18T04:49:34.409Z,8.66
2018-04-18T04:50:35.082Z,8.71
2018-04-18T04:51:35.761Z,8.73
2018-04-18T04:52:36.440Z,8.73
2018-04-18T04:53:37.107Z,8.66
2018-04-18T04:54:37.785Z,8.71
2018-04-18T04:55:38.456Z,8.76
2018-04-18T04:56:39.134Z,8.78
2018-04-18T04:57:39.812Z,8.79
2018-04-18T04:58:40.489Z,8.84
2018-04-18T04:59:41.159Z,8.78
2018-04-18T05:00:41.838Z,8.73
2018-04-18T05:01:42.506Z,8.79
2018-04-18T05:02:43.178Z,8.71
2018-04-18T05:03:43.848Z,8.78
2018-04-18T05:04:44.521Z,8.79
2018-04-18T05:05:45.194Z,8.67
2018-04-18T05:06:45.868Z,8.76
2018-04-18T05:07:46.543Z,8.76
2018-04-18T05:08:47.212Z,8.71
2018-04-18T05:09:47.885Z,8.79
2018-04-18T05:10:48.557Z,8.78
2018-04-18T05:11:49.224Z,8.91
2018-04-18T05:12:49.896Z,8.94
2018-04-18T05:13:50.567Z,8.89
2018-04-18T05:14:51.240Z,8.91
2018-04-18T05:15:51.914Z,8.97
2018-04-18T05:16:52.589Z,8.92
2018-04-18T05:17:53.261Z,8.89
2018-04-18T05:18:53.932Z,8.99
2018-04-18T05:19:54.598Z,8.99
2018-04-18T05:20:55.279Z,9.00
2018-04-18T05:21:55.955Z,9.06
2018-04-18T05:22:56.620Z,9.08
2018-04-18T05:23:57.291Z,8.97
2018-04-18T05:24:57.962Z,8.95
2018-04-18T05:25:58.631Z,9.00
2018-04-18T05:26:59.310Z,8.97
2018-04-18T05:27:59.982Z,9.03
2018-04-18T05:29:00.657Z,9.04
2018-04-18T05:30:01.330Z,9.08
2018-04-18T05:31:02.001Z,9.11
2018-04-18T05:32:02.673Z,9.06
2018-04-18T05:33:03.345Z,9.04
2018-04-18T05:34:04.028Z,9.14
2018-04-18T05:35:04.699Z,9.03
2018-04-18T05:36:05.377Z,9.11
2018-04-18T05:37:06.057Z,9.21
2018-04-18T05:38:06.725Z,9.16
2018-04-18T05:39:07.397Z,9.22
2018-04-18T05:40:08.070Z,9.22
2018-04-18T05:41:08.743Z,9.25
2018-04-18T05:42:09.417Z,9.31
2018-04-18T05:43:10.087Z,9.26
2018-04-18T05:44:10.762Z,9.28
2018-04-18T05:45:11.471Z,9.39
2018-04-18T05:46:12.111Z,9.39
2018-04-18T05:47:12.785Z,9.40
2018-04-18T05:48:13.466Z,9.32
2018-04-18T05:49:14.135Z,9.31
2018-04-18T05:50:14.807Z,9.37
2018-04-18T05:51:15.487Z,9.44
2018-04-18T05:52:16.165Z,9.37
2018-04-18T05:53:16.838Z,9.54
2018-04-18T05:54:17.507Z,9.43
2018-04-18T05:55:18.229Z,9.43
2018-04-18T05:56:18.858Z,9.56
2018-04-18T05:57:19.526Z,9.54
2018-04-18T05:58:20.202Z,9.56
2018-04-18T05:59:20.871Z,9.55
2018-04-18T06:00:21.541Z,9.55
2018-04-18T06:01:22.215Z,9.68
2018-04-18T06:02:22.886Z,9.73
2018-04-18T06:03:23.557Z,9.62
2018-04-18T06:04:24.231Z,9.69
2018-04-18T06:05:24.907Z,9.66
2018-04-18T06:06:25.583Z,9.74
2018-04-18T06:07:26.263Z,9.77
2018-04-18T06:08:26.933Z,9.79
2018-04-18T06:09:27.605Z,9.79
2018-04-18T06:10:28.276Z,9.87
2018-04-18T06:11:28.951Z,9.97
2018-04-18T06:12:29.623Z,9.95
2018-04-18T06:13:30.292Z,9.99
2018-04-18T06:14:30.967Z,10.09
2018-04-18T06:15:31.643Z,10.04
2018-04-18T06:16:32.320Z,10.07
2018-04-18T06:17:32.993Z,10.17
2018-04-18T06:18:33.671Z,10.19
2018-04-18T06:19:34.349Z,10.13
2018-04-18T06:20:35.030Z,10.15
2018-04-18T06:21:35.699Z,10.19
2018-04-18T06:22:36.371Z,10.20
2018-04-18T06:23:37.044Z,10.41
2018-04-18T06:24:37.716Z,10.40
2018-04-18T06:25:38.401Z,10.46
2018-04-18T06:26:39.074Z,10.44
2018-04-18T06:27:39.754Z,10.49
2018-04-18T06:28:40.435Z,10.63
2018-04-18T06:29:41.102Z,10.61
2018-04-18T06:30:41.777Z,10.59
2018-04-18T06:31:42.452Z,10.64
2018-04-18T06:32:43.128Z,10.67
2018-04-18T06:33:43.802Z,10.57
2018-04-18T06:34:44.477Z,10.67
2018-04-18T06:35:45.149Z,10.79
2018-04-18T06:36:45.829Z,10.69
2018-04-18T06:37:46.505Z,10.82
2018-04-18T06:38:47.182Z,10.81
2018-04-18T06:39:47.856Z,10.81
2018-04-18T06:40:48.531Z,10.82
2018-04-18T06:41:49.213Z,10.81
2018-04-18T06:42:49.891Z,10.93
2018-04-18T06:43:50.565Z,10.89
2018-04-18T06:44:51.244Z,11.00
2018-04-18T06:45:51.924Z,10.96
2018-04-18T06:46:52.594Z,11.07
2018-04-18T06:47:53.270Z,11.11
2018-04-18T06:48:53.946Z,11.18
2018-04-18T06:49:54.623Z,11.12
2018-04-18T06:50:55.310Z,11.17
2018-04-18T06:51:55.981Z,11.23
2018-04-18T06:52:56.655Z,11.22
2018-04-18T06:53:57.330Z,11.32
2018-04-18T06:54:58.002Z,11.32
2018-04-18T06:55:58.685Z,11.37
2018-04-18T06:56:59.358Z,11.47
2018-04-18T06:58:00.044Z,11.37
2018-04-18T06:59:00.717Z,11.51
2018-04-18T07:00:01.393Z,11.50
2018-04-18T07:01:02.069Z,11.48
2018-04-18T07:02:02.749Z,11.57
2018-04-18T07:03:03.428Z,11.62
2018-04-18T07:04:04.102Z,11.66
2018-04-18T07:05:04.783Z,11.65
2018-04-18T07:06:05.456Z,11.70
2018-04-18T07:07:06.137Z,11.90
2018-04-18T07:08:06.815Z,11.95
2018-04-18T07:09:07.493Z,12.06
2018-04-18T07:10:08.165Z,12.04
2018-04-18T07:11:08.886Z,12.18
2018-04-18T07:12:09.530Z,12.12
2018-04-18T07:13:10.203Z,12.20
2018-04-18T07:14:10.880Z,12.24
2018-04-18T07:15:11.555Z,12.43
2018-04-18T07:16:12.231Z,12.49
2018-04-18T07:17:12.915Z,12.68
2018-04-18T07:18:13.590Z,12.78
2018-04-18T07:19:14.270Z,12.83
2018-04-18T07:20:14.947Z,12.85
2018-04-18T07:21:15.621Z,12.90
2018-04-18T07:22:16.313Z,12.93
2018-04-18T07:23:16.989Z,12.97
2018-04-18T07:24:17.671Z,13.03
2018-04-18T07:25:18.347Z,13.08
2018-04-18T07:26:19.029Z,13.08
2018-04-18T07:27:19.706Z,13.13
2018-04-18T07:28:20.383Z,13.31
2018-04-18T07:29:21.067Z,13.28
2018-04-18T07:30:21.744Z,13.30
2018-04-18T07:31:22.422Z,13.31
2018-04-18T07:32:23.095Z,13.39
2018-04-18T07:33:23.770Z,13.47
2018-04-18T07:34:24.480Z,13.59
2018-04-18T07:35:25.124Z,13.59
2018-04-18T07:36:25.811Z,13.50
2018-04-18T07:37:26.509Z,13.63
2018-04-18T07:38:27.187Z,13.62
2018-04-18T07:39:27.863Z,13.62
2018-04-18T07:40:28.542Z,13.70
2018-04-18T07:41:29.218Z,13.86
2018-04-18T07:42:29.896Z,13.87
2018-04-18T07:43:30.570Z,13.92
2018-04-18T07:44:31.246Z,13.81
2018-04-18T07:45:31.930Z,13.97
2018-04-18T07:46:32.606Z,14.11
2018-04-18T07:47:33.285Z,14.15
2018-04-18T07:48:33.957Z,14.22
2018-04-18T07:49:34.633Z,14.30
2018-04-18T07:50:35.312Z,14.36
2018-04-18T07:51:35.988Z,14.43
2018-04-18T07:52:36.667Z,14.47
2018-04-18T07:53:37.349Z,14.54
2018-04-18T07:54:38.022Z,14.73
2018-04-18T07:55:38.699Z,14.72
2018-04-18T07:56:39.378Z,14.66
2018-04-18T07:57:40.056Z,14.73
2018-04-18T07:58:40.737Z,14.79
2018-04-18T07:59:41.414Z,14.99
2018-04-18T08:00:42.101Z,14.88
2018-04-18T08:01:42.776Z,14.94
2018-04-18T08:02:43.454Z,14.97
2018-04-18T08:03:44.135Z,15.07
2018-04-18T08:04:44.813Z,15.15
2018-04-18T08:05:45.489Z,15.22
2018-04-18T08:06:46.165Z,15.22
2018-04-18T08:07:47.064Z,15.21
2018-04-18T08:08:47.744Z,15.28
2018-04-18T08:09:48.419Z,15.29
2018-04-18T08:10:49.102Z,15.25
2018-04-18T08:11:49.775Z,15.36
2018-04-18T08:12:50.453Z,15.40
2018-04-18T08:13:51.134Z,15.37
2018-04-18T08:14:51.843Z,15.37
2018-04-18T08:15:52.506Z,15.51
2018-04-18T08:16:53.185Z,15.55
2018-04-18T08:17:53.873Z,15.65
2018-04-18T08:18:54.562Z,15.77
2018-04-18T08:19:55.236Z,15.88
2018-04-18T08:20:55.912Z,15.94
2018-04-18T08:21:56.593Z,15.92
2018-04-18T08:22:57.267Z,16.00
2018-04-18T08:23:57.944Z,16.15
2018-04-18T08:24:58.618Z,16.16
2018-04-18T08:25:59.299Z,16.02
2018-04-18T08:26:59.980Z,16.08
2018-04-18T08:28:00.662Z,16.15
2018-04-18T08:29:01.340Z,16.15
2018-04-18T08:30:02.019Z,16.24
2018-04-18T08:31:02.711Z,16.33
2018-04-18T08:32:03.462Z,16.39
2018-04-18T08:33:04.137Z,16.20
2018-04-18T08:34:04.873Z,16.16
2018-04-18T08:35:05.494Z,16.41
2018-04-18T08:36:06.181Z,16.39
2018-04-18T08:37:06.860Z,16.50
2018-04-18T08:38:07.536Z,16.60
2018-04-18T08:39:08.215Z,16.68
2018-04-18T08:40:08.895Z,16.68
2018-04-18T08:41:09.573Z,16.78
2018-04-18T08:42:10.251Z,17.05
2018-04-18T08:43:10.929Z,16.94
2018-04-18T08:44:11.605Z,16.96
2018-04-18T08:45:12.285Z,17.06
2018-04-18T08:46:12.975Z,17.05
2018-04-18T08:47:13.658Z,17.12
2018-04-18T08:48:14.341Z,17.26
2018-04-18T08:49:15.026Z,17.45
2018-04-18T08:50:15.706Z,17.56
2018-04-18T08:51:16.379Z,17.59
2018-04-18T08:52:17.058Z,17.56
2018-04-18T08:53:17.740Z,17.57
2018-04-18T08:54:18.420Z,17.56
2018-04-18T08:55:19.095Z,17.71
2018-04-18T08:56:19.770Z,17.71
2018-04-18T08:57:20.450Z,17.85
2018-04-18T08:58:21.128Z,18.00
2018-04-18T08:59:21.813Z,18.16
2018-04-18T09:00:22.493Z,18.00
2018-04-18T09:01:23.188Z,18.15
2018-04-18T09:02:23.867Z,18.19
2018-04-18T09:03:24.547Z,18.11
2018-04-18T09:04:25.228Z,18.19
2018-04-18T09:05:25.912Z,18.25
2018-04-18T09:06:26.599Z,18.43
2018-04-18T09:07:27.270Z,18.33
2018-04-18T09:08:27.948Z,18.35
2018-04-18T09:09:28.622Z,18.45
2018-04-18T09:10:29.308Z,18.53
2018-04-18T09:11:29.989Z,18.58
2018-04-18T09:12:30.666Z,18.58
2018-04-18T09:13:31.344Z,18.56
2018-04-18T09:14:32.035Z,18.75
2018-04-18T09:15:32.703Z,18.84
2018-04-18T09:16:33.382Z,18.84
2018-04-18T09:17:34.062Z,18.73
2018-04-18T09:18:34.739Z,18.78
2018-04-18T09:19:35.425Z,18.86
2018-04-18T09:20:36.104Z,18.84
2018-04-18T09:21:36.784Z,18.88
2018-04-18T09:22:37.470Z,19.00
2018-04-18T09:23:38.147Z,19.04
2018-04-18T09:24:38.827Z,19.02
2018-04-18T09:25:39.504Z,19.11
2018-04-18T09:26:40.183Z,19.14
2018-04-18T09:27:40.862Z,19.24
2018-04-18T09:28:41.542Z,19.22
2018-04-18T09:29:42.227Z,19.29
2018-04-18T09:30:42.904Z,19.34
2018-04-18T09:31:43.802Z,19.31
2018-04-18T09:32:44.483Z,19.34
2018-04-18T09:33:45.159Z,19.41
2018-04-18T09:34:45.838Z,19.63
2018-04-18T09:35:46.520Z,19.54
2018-04-18T09:36:47.198Z,19.67
2018-04-18T09:37:47.883Z,19.77
2018-04-18T09:38:48.569Z,19.84
2018-04-18T09:39:49.251Z,19.91
2018-04-18T09:40:49.934Z,19.89
2018-04-18T09:41:50.657Z,19.86
2018-04-18T09:42:51.300Z,19.91
2018-04-18T09:43:51.969Z,20.06
2018-04-18T09:44:52.657Z,20.16
2018-04-18T09:45:53.337Z,20.09
2018-04-18T09:46:54.024Z,20.16
2018-04-18T09:47:54.923Z,20.11
2018-04-18T09:48:55.604Z,20.14
2018-04-18T09:49:56.277Z,20.28
2018-04-18T09:50:56.965Z,20.36
2018-04-18T09:51:57.644Z,20.22
2018-04-18T09:52:58.322Z,20.21
2018-04-18T09:53:59.012Z,20.25
2018-04-18T09:54:59.700Z,20.26
2018-04-18T09:56:00.376Z,20.24
2018-04-18T09:57:01.055Z,20.39
2018-04-18T09:58:01.737Z,20.40
2018-04-18T09:59:02.417Z,20.43
2018-04-18T10:00:03.098Z,20.65
2018-04-18T10:01:03.779Z,20.62
2018-04-18T10:02:04.460Z,20.58
2018-04-18T10:03:05.138Z,20.55
2018-04-18T10:04:05.841Z,20.70
2018-04-18T10:05:06.505Z,20.67
2018-04-18T10:06:07.203Z,20.72
2018-04-18T10:07:07.957Z,20.74
2018-04-18T10:08:08.635Z,20.77
2018-04-18T10:09:09.316Z,20.87
2018-04-18T10:10:10.020Z,20.84
2018-04-18T10:11:10.699Z,20.90
2018-04-18T10:12:11.382Z,20.88
2018-04-18T10:13:12.062Z,20.92
2018-04-18T10:14:12.743Z,21.05
2018-04-18T10:15:13.424Z,21.14
2018-04-18T10:16:14.201Z,21.03
2018-04-18T10:17:14.813Z,21.24
2018-04-18T10:18:15.493Z,21.24
2018-04-18T10:19:16.173Z,21.22
2018-04-18T10:20:16.855Z,21.21
2018-04-18T10:21:17.531Z,21.33
2018-04-18T10:22:18.212Z,21.30
2018-04-18T10:23:18.891Z,21.18
2018-04-18T10:24:19.577Z,21.39
2018-04-18T10:25:20.258Z,21.29
2018-04-18T10:26:20.937Z,21.43
2018-04-18T10:27:21.619Z,21.40
2018-04-18T10:28:22.301Z,21.45
2018-04-18T10:29:22.985Z,21.50
2018-04-18T10:30:23.664Z,21.52
2018-04-18T10:31:24.378Z,21.62
2018-04-18T10:32:25.035Z,21.66
2018-04-18T10:33:25.719Z,21.80
2018-04-18T10:34:26.401Z,21.76
2018-04-18T10:35:27.086Z,21.76
2018-04-18T10:36:27.764Z,21.80
2018-04-18T10:37:28.445Z,21.79
2018-04-18T10:38:29.134Z,21.92
2018-04-18T10:39:29.815Z,21.92
2018-04-18T10:40:30.498Z,22.07
2018-04-18T10:41:31.176Z,21.95
2018-04-18T10:42:31.871Z,21.95
2018-04-18T10:43:32.551Z,21.93
2018-04-18T10:44:33.232Z,21.98
2018-04-18T10:45:33.916Z,21.92
2018-04-18T10:46:34.593Z,22.10
2018-04-18T10:47:35.276Z,22.00
2018-04-18T10:48:35.962Z,22.04
2018-04-18T10:49:36.645Z,22.13
2018-04-18T10:50:37.326Z,22.15
2018-04-18T10:51:38.009Z,22.14
2018-04-18T10:52:38.690Z,22.22
2018-04-18T10:53:39.370Z,22.15
2018-04-18T10:54:40.049Z,22.25
2018-04-18T10:55:40.733Z,22.39
2018-04-18T10:56:41.416Z,22.57
2018-04-18T10:57:42.095Z,22.57
2018-04-18T10:58:42.778Z,22.55
2018-04-18T10:59:43.417Z,22.63
2018-04-18T11:00:44.152Z,22.65
2018-04-18T11:01:44.834Z,22.68
2018-04-18T11:02:45.516Z,22.69
2018-04-18T11:03:46.197Z,22.81
2018-04-18T11:04:46.879Z,22.78
2018-04-18T11:05:47.562Z,22.62
2018-04-18T11:06:48.247Z,22.81
2018-04-18T11:07:48.927Z,22.80
2018-04-18T11:08:49.607Z,22.81
2018-04-18T11:09:50.291Z,22.93
2018-04-18T11:10:50.972Z,23.02
2018-04-18T11:11:51.652Z,22.96
2018-04-18T11:12:52.341Z,22.84
2018-04-18T11:13:53.030Z,23.03
2018-04-18T11:14:53.720Z,23.00
2018-04-18T11:15:54.398Z,23.21
2018-04-18T11:16:55.074Z,23.31
2018-04-18T11:17:55.758Z,23.12
2018-04-18T11:18:56.441Z,23.34
2018-04-18T11:19:57.119Z,23.24
2018-04-18T11:20:57.798Z,23.36
2018-04-18T11:21:58.481Z,23.55
2018-04-18T11:22:59.165Z,23.55
2018-04-18T11:23:59.847Z,23.24
2018-04-18T11:25:00.529Z,23.43
2018-04-18T11:26:01.217Z,23.61
2018-04-18T11:27:01.911Z,23.66
2018-04-18T11:28:02.589Z,23.69
2018-04-18T11:29:03.275Z,23.76
2018-04-18T11:30:03.954Z,23.63
2018-04-18T11:31:04.641Z,23.66
2018-04-18T11:32:05.326Z,23.91
2018-04-18T11:33:06.009Z,24.47
2018-04-18T11:34:06.690Z,25.31
2018-04-18T11:35:07.375Z,26.56
2018-04-18T11:36:08.064Z,28.15
2018-04-18T11:37:08.745Z,29.87
2018-04-18T11:38:09.440Z,30.78
2018-04-18T11:39:10.128Z,30.19
2018-04-18T11:40:10.801Z,31.70
2018-04-18T11:41:11.495Z,33.45
2018-04-18T11:42:12.181Z,33.96
2018-04-18T11:43:12.865Z,34.32
2018-04-18T11:44:13.551Z,32.85
2018-04-18T11:45:14.238Z,34.08
2018-04-18T11:46:14.927Z,36.12
2018-04-18T11:47:15.615Z,36.25
2018-04-18T11:48:16.308Z,38.11
2018-04-18T11:49:16.997Z,38.42
2018-04-18T11:50:17.781Z,39.14
2018-04-18T11:51:18.470Z,38.04
2018-04-18T11:52:19.158Z,37.01
2018-04-18T11:53:19.847Z,36.57
2018-04-18T11:54:20.535Z,37.94
2018-04-18T11:55:21.227Z,36.99
2018-04-18T11:56:21.913Z,39.02
2018-04-18T11:57:22.603Z,39.72
2018-04-18T11:58:23.288Z,40.26
2018-04-18T11:59:23.977Z,41.40
2018-04-18T12:00:24.668Z,41.77
2018-04-18T12:01:25.363Z,41.71
2018-04-18T12:02:26.057Z,39.48
2018-04-18T12:03:26.757Z,37.26
2018-04-18T12:04:27.445Z,38.01
2018-04-18T12:05:28.142Z,38.74
2018-04-18T12:06:28.842Z,40.18
2018-04-18T12:07:29.532Z,39.80
2018-04-18T12:08:30.224Z,38.91
2018-04-18T12:09:30.916Z,39.25
2018-04-18T12:10:31.607Z,39.12
2018-04-18T12:11:32.321Z,38.45
2018-04-18T12:12:33.001Z,39.03
2018-04-18T12:13:33.692Z,39.14
2018-04-18T12:14:34.387Z,40.02
2018-04-18T12:15:35.077Z,40.69
2018-04-18T12:16:35.772Z,41.71
2018-04-18T12:17:36.460Z,42.31
2018-04-18T12:18:37.152Z,43.13
2018-04-18T12:19:37.845Z,43.54
2018-04-18T12:20:38.587Z,45.12
2018-04-18T12:21:39.228Z,45.85
2018-04-18T12:22:39.921Z,43.83
2018-04-18T12:23:40.615Z,43.94
2018-04-18T12:24:41.308Z,42.33
2018-04-18T12:25:42.001Z,44.72
2018-04-18T12:26:42.773Z,45.46
2018-04-18T12:27:43.436Z,46.20
2018-04-18T12:28:44.134Z,47.29
2018-04-18T12:29:44.834Z,49.32
2018-04-18T12:30:45.527Z,46.35
2018-04-18T12:31:46.220Z,45.85
2018-04-18T12:32:46.917Z,44.34
2018-04-18T12:33:47.640Z,46.53
2018-04-18T12:34:48.320Z,45.84
2018-04-18T12:35:49.013Z,46.04
2018-04-18T12:36:49.708Z,44.55
2018-04-18T12:37:50.400Z,48.41
2018-04-18T12:38:51.094Z,46.61
2018-04-18T12:39:51.795Z,46.82
2018-04-18T12:40:52.489Z,48.91
2018-04-18T12:41:53.186Z,49.67
2018-04-18T12:42:53.880Z,52.52
2018-04-18T12:43:54.600Z,49.28
2018-04-18T12:44:55.301Z,48.57
2018-04-18T12:45:55.995Z,48.82
2018-04-18T12:46:56.634Z,51.25
2018-04-18T12:47:57.377Z,51.39
2018-04-18T12:48:58.141Z,51.35
2018-04-18T12:49:58.777Z,50.11
2018-04-18T12:50:59.553Z,50.72
2018-04-18T12:52:00.249Z,48.00
2018-04-18T12:53:00.945Z,50.89
2018-04-18T12:54:01.639Z,50.17
2018-04-18T12:55:02.349Z,51.38
2018-04-18T12:56:03.045Z,49.78
2018-04-18T12:57:03.738Z,45.48
2018-04-18T12:58:04.437Z,46.13
2018-04-18T12:59:05.128Z,47.56
2018-04-18T13:00:05.830Z,46.24
2018-04-18T13:01:06.482Z,48.09
2018-04-18T13:02:07.228Z,45.93
2018-04-18T13:03:07.921Z,45.66
2018-04-18T13:04:08.620Z,46.92
2018-04-18T13:05:09.324Z,48.78
2018-04-18T13:06:10.020Z,50.30
2018-04-18T13:07:10.714Z,48.09
2018-04-18T13:08:11.408Z,48.02
2018-04-18T13:09:12.102Z,49.06
2018-04-18T13:10:12.799Z,49.87